.
WxDataArchive / Data Records for 2006-01-30
2006-01-29 January 2006 2006-01-31

Data Records for Monday, 30 January 2006

Time	Temp	Chill	HIndex	Humid	Dewpt	 Wind 	HiWind	WindDir	Rain 	Barom 
-----	----	-----	------	-----	-----	------	------	-------	-----	----- 
00:00	44.2	44.2	44.2	85	40.0	3	7	248	0.00	29.598 
00:05	44.1	44.1	44.1	84	39.6	3	10	270	0.00	29.598 
00:10	44.1	44.1	44.1	84	39.6	3	6	248	0.00	29.598 
00:15	44.1	42.1	44.1	84	39.6	4	13	248	0.00	29.598 
00:20	44.1	42.1	44.1	84	39.6	4	12	270	0.00	29.598 
00:25	44.1	42.1	44.1	84	39.6	4	13	248	0.00	29.598 
00:30	44.1	44.1	44.1	84	39.6	3	9	270	0.00	29.591 
00:35	44.1	42.1	44.1	84	39.6	4	11	248	0.00	29.591 
00:40	43.9	41.8	43.9	84	39.4	4	10	248	0.00	29.591 
00:45	43.9	43.9	43.9	85	39.7	3	7	248	0.00	29.590 
00:50	43.8	43.8	43.8	85	39.6	3	7	248	0.00	29.590 
00:55	43.8	43.8	43.8	85	39.6	3	7	248	0.00	29.590 
01:00	43.8	43.8	43.8	85	39.6	3	9	248	0.00	29.591 
01:05	43.8	40.9	43.8	84	39.3	5	12	270	0.00	29.591 
01:10	43.8	41.7	43.8	84	39.3	4	10	248	0.00	29.591 
01:15	43.8	40.9	43.8	83	39.0	5	12	270	0.00	29.594 
01:20	43.8	40.3	43.8	81	38.4	6	17	270	0.00	29.594 
01:25	43.8	40.3	43.8	80	38.0	6	14	270	0.00	29.594 
01:30	43.8	40.3	43.8	79	37.7	6	15	248	0.00	29.592 
01:35	43.8	40.3	43.8	79	37.7	6	14	270	0.00	29.592 
01:40	43.8	41.7	43.8	79	37.7	4	7	248	0.00	29.592 
01:45	43.8	39.7	43.8	79	37.7	7	17	270	0.00	29.600 
01:50	43.6	40.0	43.6	80	37.8	6	14	248	0.00	29.600 
01:55	43.6	40.7	43.6	81	38.2	5	14	270	0.00	29.600 
02:00	43.5	40.6	43.5	81	38.1	5	14	270	0.00	29.601 
02:05	43.5	40.6	43.5	81	38.1	5	17	248	0.00	29.601 
02:10	43.3	43.3	43.3	81	37.9	3	6	248	0.00	29.601 
02:15	43.3	41.1	43.3	81	37.9	4	13	248	0.00	29.603 
02:20	43.3	43.3	43.3	82	38.2	3	9	248	0.00	29.603 
02:25	43.3	40.3	43.3	81	37.9	5	11	270	0.00	29.603 
02:30	43.3	43.3	43.3	82	38.2	3	9	248	0.00	29.607 
02:35	43.2	41.0	43.2	81	37.8	4	7	248	0.00	29.607 
02:40	43.1	39.5	43.1	81	37.7	6	12	270	0.00	29.607 
02:45	42.9	39.9	42.9	82	37.8	5	13	270	0.00	29.608 
02:50	42.6	38.9	42.6	82	37.5	6	17	270	0.00	29.608 
02:55	42.5	40.2	42.5	82	37.4	4	11	248	0.00	29.608 
03:00	42.5	42.5	42.5	83	37.7	3	9	248	0.00	29.614 
03:05	42.3	38.5	42.3	82	37.2	6	14	248	0.00	29.614 
03:10	42.3	40.0	42.3	82	37.2	4	14	248	0.00	29.614 
03:15	42.2	39.9	42.2	82	37.1	4	11	248	0.00	29.614 
03:20	42.1	38.9	42.1	81	36.7	5	11	248	0.00	29.614 
03:25	41.9	39.5	41.9	81	36.5	4	12	248	0.00	29.614 
03:30	41.9	39.5	41.9	81	36.5	4	10	248	0.00	29.614 
03:35	41.9	39.5	41.9	81	36.5	4	11	248	0.00	29.614 
03:40	41.9	38.7	41.9	80	36.2	5	12	270	0.00	29.614 
03:45	41.9	39.5	41.9	81	36.5	4	10	270	0.00	29.609 
03:50	41.9	39.5	41.9	80	36.2	4	11	270	0.00	29.609 
03:55	41.9	39.5	41.9	80	36.2	4	11	270	0.00	29.609 
04:00	41.9	38.0	41.9	80	36.2	6	16	270	0.00	29.608 
04:05	41.9	38.0	41.9	80	36.2	6	13	270	0.00	29.608 
04:10	41.8	37.9	41.8	79	35.8	6	15	248	0.00	29.608 
04:15	41.6	39.2	41.6	79	35.6	4	10	248	0.00	29.607 
04:20	41.3	38.0	41.3	80	35.6	5	12	248	0.00	29.607 
04:25	41.2	38.7	41.2	80	35.5	4	12	248	0.00	29.607 
04:30	41.2	41.2	41.2	81	35.8	3	7	248	0.00	29.611 
04:35	41.2	41.2	41.2	81	35.8	3	7	248	0.00	29.611 
04:40	41.2	41.2	41.2	81	35.8	3	10	248	0.00	29.611 
04:45	41.2	37.9	41.2	80	35.5	5	12	248	0.00	29.611 
04:50	41.2	38.7	41.2	80	35.5	4	12	248	0.00	29.611 
04:55	41.2	37.9	41.2	80	35.5	5	11	270	0.00	29.611 
05:00	41.2	38.7	41.2	80	35.5	4	7	248	0.00	29.613 
05:05	41.1	38.6	41.1	81	35.7	4	10	248	0.00	29.613 
05:10	41.1	37.8	41.1	81	35.7	5	11	248	0.00	29.613 
05:15	40.9	38.4	40.9	81	35.5	4	10	248	0.00	29.625 
05:20	40.8	38.2	40.8	81	35.4	4	14	270	0.00	29.625 
05:25	40.6	37.2	40.6	81	35.2	5	13	270	0.00	29.625 
05:30	40.6	37.2	40.6	81	35.2	5	12	270	0.00	29.628 
05:35	40.3	37.7	40.3	81	34.9	4	11	270	0.00	29.628 
05:40	40.2	40.2	40.2	81	34.8	3	9	248	0.00	29.628 
05:45	40.1	37.4	40.1	82	35.1	4	9	270	0.00	29.625 
05:50	40.1	40.1	40.1	82	35.1	2	6	248	0.00	29.625 
05:55	39.9	39.9	39.9	82	34.9	3	7	248	0.00	29.625 
06:00	39.8	36.2	39.8	82	34.8	5	11	248	0.00	29.621 
06:05	39.6	39.6	39.6	83	34.9	3	6	248	0.00	29.621 
06:10	39.5	39.5	39.5	83	34.8	3	6	248	0.00	29.621 
06:15	39.2	39.2	39.2	84	34.8	3	9	248	0.00	29.623 
06:20	39.1	39.1	39.1	84	34.7	3	7	248	0.00	29.623 
06:25	38.9	38.9	38.9	84	34.5	2	7	248	0.00	29.623 
06:30	38.8	38.8	38.8	84	34.4	2	6	248	0.00	29.622 
06:35	38.6	38.6	38.6	85	34.5	2	6	248	0.00	29.622 
06:40	38.3	38.3	38.3	85	34.2	2	6	248	0.00	29.622 
06:45	38.0	38.0	38.0	86	34.2	1	3	248	0.00	29.625 
06:50	37.8	37.8	37.8	86	34.0	1	3	248	0.00	29.625 
06:55	37.5	37.5	37.5	87	34.0	2	5	248	0.00	29.625 
07:00	37.5	37.5	37.5	87	34.0	2	6	248	0.00	29.632 
07:05	37.5	37.5	37.5	87	34.0	2	6	248	0.00	29.632 
07:10	37.6	37.6	37.6	87	34.1	2	4	248	0.00	29.632 
07:15	37.5	37.5	37.5	88	34.3	2	4	248	0.00	29.633 
07:20	37.6	37.6	37.6	88	34.4	2	5	248	0.00	29.633 
07:25	37.5	37.5	37.5	88	34.3	2	5	248	0.00	29.633 
07:30	37.5	37.5	37.5	88	34.3	3	6	248	0.00	29.634 
07:35	37.6	37.6	37.6	88	34.4	3	6	248	0.00	29.634 
07:40	37.6	37.6	37.6	87	34.1	3	6	248	0.00	29.634 
07:45	37.6	34.5	37.6	87	34.1	4	7	248	0.00	29.640 
07:50	37.6	37.6	37.6	86	33.8	3	7	248	0.00	29.640 
07:55	37.6	37.6	37.6	86	33.8	3	9	248	0.00	29.640 
08:00	37.5	37.5	37.5	86	33.7	3	8	270	0.00	29.635 
08:05	37.5	37.5	37.5	86	33.7	2	6	248	0.00	29.635 
08:10	37.5	37.5	37.5	87	34.0	2	6	248	0.00	29.635 
08:15	37.5	37.5	37.5	87	34.0	2	4	248	0.00	29.634 
08:20	37.5	37.5	37.5	86	33.7	3	7	248	0.00	29.634 
08:25	37.6	34.5	37.6	86	33.8	4	9	270	0.00	29.634 
08:30	37.6	37.6	37.6	86	33.8	2	5	248	0.00	29.632 
08:35	37.6	34.5	37.6	86	33.8	4	10	248	0.00	29.632 
08:40	37.6	33.7	37.6	85	33.5	5	12	248	0.00	29.632 
08:45	37.6	34.5	37.6	84	33.2	4	10	270	0.00	29.633 
08:50	37.8	33.9	37.8	84	33.4	5	12	248	0.00	29.633 
08:55	37.9	34.9	37.9	84	33.5	4	11	248	0.00	29.633 
09:00	37.9	34.9	37.9	84	33.5	4	7	248	0.00	29.634 
09:05	38.0	38.0	38.0	84	33.6	3	13	248	0.00	29.634 
09:10	38.2	38.2	38.2	83	33.5	3	11	248	0.00	29.634 
09:15	38.2	38.2	38.2	83	33.5	3	9	248	0.00	29.635 
09:20	38.3	35.4	38.3	81	33.0	4	12	248	0.00	29.635 
09:25	38.6	35.7	38.6	80	33.0	4	11	248	0.00	29.635 
09:30	38.9	38.9	38.9	80	33.3	3	7	248	0.00	29.639 
09:35	39.1	36.3	39.1	77	32.5	4	12	248	0.00	29.639 
09:40	39.3	36.5	39.3	77	32.7	4	15	270	0.00	29.639 
09:45	39.6	39.6	39.6	76	32.7	3	7	248	0.00	29.638 
09:50	39.8	36.2	39.8	75	32.5	5	9	248	0.00	29.638 
09:55	39.9	37.2	39.9	74	32.3	4	12	270	0.00	29.638 
10:00	40.5	40.5	40.5	73	32.5	3	7	270	0.00	29.639 
10:05	40.3	37.7	40.3	73	32.3	4	11	270	0.00	29.639 
10:10	40.2	37.5	40.2	72	31.9	4	10	270	0.00	29.639 
10:15	40.1	37.4	40.1	71	31.5	4	11	270	0.00	29.646 
10:20	39.9	37.2	39.9	70	30.9	4	10	270	0.00	29.646 
10:25	40.1	37.4	40.1	71	31.5	4	9	270	0.00	29.646 
10:30	40.2	36.7	40.2	68	30.5	5	12	248	0.00	29.648 
10:35	40.2	36.0	40.2	69	30.9	6	12	270	0.00	29.648 
10:40	40.2	36.0	40.2	68	30.5	6	13	270	0.00	29.648 
10:45	40.2	36.7	40.2	66	29.8	5	14	270	0.00	29.651 
10:50	40.1	35.9	40.1	67	30.0	6	14	270	0.00	29.651 
10:55	40.2	36.0	40.2	66	29.8	6	18	270	0.00	29.651 
11:00	40.3	36.8	40.3	66	29.9	5	15	270	0.00	29.661 
11:05	40.3	37.7	40.3	67	30.2	4	12	270	0.00	29.661 
11:10	40.3	37.7	40.3	66	29.9	4	11	248	0.00	29.661 
11:15	40.1	37.4	40.1	65	29.3	4	10	270	0.00	29.666 
11:20	40.2	37.5	40.2	66	29.8	4	9	270	0.00	29.666 
11:25	40.3	40.3	40.3	67	30.2	3	7	270	0.00	29.666 
11:30	40.2	37.5	40.2	68	30.5	4	10	270	0.00	29.667 
11:35	40.1	37.4	40.1	69	30.8	4	11	270	0.00	29.667 
11:40	40.1	40.1	40.1	69	30.8	3	7	270	0.00	29.667 
11:45	40.2	37.5	40.2	68	30.5	4	10	270	0.00	29.664 
11:50	40.2	36.7	40.2	68	30.5	5	14	270	0.00	29.664 
11:55	40.3	37.7	40.3	68	30.6	4	10	270	0.00	29.664 
12:00	40.2	36.7	40.2	68	30.5	5	11	270	0.00	29.665 
12:05	40.1	36.6	40.1	68	30.4	5	10	270	0.00	29.665 
12:10	40.2	37.5	40.2	68	30.5	4	12	270	0.00	29.665 
12:15	40.2	37.5	40.2	68	30.5	4	10	270	0.00	29.664 
12:20	40.2	37.5	40.2	69	30.9	4	9	270	0.00	29.664 
12:25	40.2	37.5	40.2	69	30.9	4	10	270	0.00	29.664 
12:30	40.2	40.2	40.2	69	30.9	3	9	270	0.00	29.664 
12:35	39.9	39.9	39.9	71	31.3	3	6	270	0.00	29.664 
12:40	39.8	39.8	39.8	72	31.5	2	5	270	0.00	29.664 
12:45	39.6	39.6	39.6	72	31.3	2	4	270	0.00	29.664 
12:50	39.5	39.5	39.5	72	31.2	3	6	270	0.00	29.664 
12:55	39.3	39.3	39.3	73	31.4	2	5	248	0.00	29.664 
13:00	39.2	39.2	39.2	73	31.3	2	5	270	0.00	29.665 
13:05	39.2	39.2	39.2	73	31.3	2	7	248	0.00	29.665 
13:10	39.5	39.5	39.5	73	31.6	1	3	248	0.00	29.665 
13:15	39.5	39.5	39.5	72	31.2	2	4	270	0.00	29.660 
13:20	39.2	39.2	39.2	72	30.9	2	4	270	0.00	29.660 
13:25	39.1	39.1	39.1	73	31.2	1	5	248	0.00	29.660 
13:30	38.9	38.9	38.9	73	31.0	2	4	248	0.00	29.659 
13:35	38.8	38.8	38.8	73	30.9	3	6	270	0.00	29.659 
13:40	38.6	38.6	38.6	73	30.7	2	5	248	0.00	29.659 
13:45	38.5	38.5	38.5	74	30.9	2	5	248	0.00	29.660 
13:50	38.3	38.3	38.3	75	31.1	3	6	270	0.00	29.660 
13:55	38.2	38.2	38.2	75	31.0	3	6	270	0.00	29.660 
14:00	37.9	37.9	37.9	76	31.0	3	10	270	0.00	29.659 
14:05	37.9	37.9	37.9	77	31.3	2	6	270	0.00	29.659 
14:10	37.8	37.8	37.8	77	31.2	3	10	270	0.00	29.659 
14:15	37.8	37.8	37.8	77	31.2	2	6	270	0.00	29.659 
14:20	37.8	37.8	37.8	76	30.9	2	5	248	0.00	29.659 
14:25	37.9	37.9	37.9	75	30.7	2	8	248	0.00	29.659 
14:30	38.0	35.0	38.0	74	30.5	4	11	270	0.00	29.658 
14:35	38.2	38.2	38.2	73	30.3	3	13	248	0.00	29.658 
14:40	38.3	35.4	38.3	73	30.4	4	13	270	0.00	29.658 
14:45	38.2	35.2	38.2	72	30.0	4	9	270	0.00	29.664 
14:50	37.8	34.8	37.8	72	29.6	4	11	270	0.00	29.664 
14:55	37.6	37.6	37.6	73	29.7	3	9	270	0.00	29.664 
15:00	37.6	34.5	37.6	72	29.4	4	11	270	0.00	29.667 
15:05	37.5	34.4	37.5	72	29.3	4	13	270	0.00	29.667 
15:10	37.5	37.5	37.5	71	29.0	3	9	270	0.00	29.667 
15:15	37.6	37.6	37.6	71	29.1	3	9	248	0.00	29.668 
15:20	37.6	37.6	37.6	71	29.1	3	6	248	0.00	29.668 
15:25	37.6	37.6	37.6	70	28.7	3	9	270	0.00	29.668 
15:30	37.6	34.5	37.6	69	28.4	4	10	270	0.00	29.668 
15:35	37.5	37.5	37.5	69	28.3	2	7	270	0.00	29.668 
15:40	37.5	37.5	37.5	69	28.3	3	5	270	0.00	29.668 
15:45	37.3	34.2	37.3	71	28.8	4	12	248	0.00	29.670 
15:50	37.5	37.5	37.5	71	29.0	3	9	248	0.00	29.670 
15:55	37.5	37.5	37.5	70	28.6	3	8	248	0.00	29.670 
16:00	37.5	34.4	37.5	69	28.3	4	13	270	0.00	29.669 
16:05	37.3	34.2	37.3	69	28.1	4	13	248	0.00	29.669 
16:10	37.3	37.3	37.3	69	28.1	3	7	270	0.00	29.669 
16:15	37.3	37.3	37.3	70	28.4	2	5	270	0.00	29.674 
16:20	37.3	37.3	37.3	70	28.4	2	7	248	0.00	29.674 
16:25	37.3	37.3	37.3	71	28.8	1	3	248	0.00	29.674 
16:30	37.3	34.2	37.3	70	28.4	4	11	248	0.00	29.675 
16:35	37.3	37.3	37.3	71	28.8	3	10	270	0.00	29.675 
16:40	37.3	37.3	37.3	72	29.1	3	11	248	0.00	29.675 
16:45	37.2	37.2	37.2	72	29.0	3	7	270	0.00	29.684 
16:50	37.2	37.2	37.2	73	29.4	3	9	248	0.00	29.684 
16:55	37.0	37.0	37.0	74	29.5	2	9	248	0.00	29.684 
17:00	37.0	37.0	37.0	73	29.2	2	7	248	0.00	29.686 
17:05	37.0	37.0	37.0	73	29.2	3	11	248	0.00	29.686 
17:10	37.0	37.0	37.0	72	28.8	3	7	248	0.00	29.686 
17:15	37.0	37.0	37.0	72	28.8	3	6	248	0.00	29.693 
17:20	37.0	37.0	37.0	73	29.2	2	6	248	0.00	29.693 
17:25	37.0	37.0	37.0	73	29.2	2	5	248	0.00	29.693 
17:30	37.0	37.0	37.0	74	29.5	2	7	270	0.00	29.699 
17:35	36.9	36.9	36.9	74	29.4	3	10	270	0.00	29.699 
17:40	36.9	36.9	36.9	74	29.4	3	9	248	0.00	29.699 
17:45	36.8	36.8	36.8	76	30.0	3	5	270	0.00	29.706 
17:50	36.6	36.6	36.6	76	29.8	2	7	270	0.00	29.706 
17:55	36.5	36.5	36.5	76	29.7	3	11	248	0.00	29.706 
18:00	36.5	36.5	36.5	75	29.3	3	6	270	0.00	29.713 
18:05	36.3	36.3	36.3	75	29.1	2	9	270	0.00	29.713 
18:10	36.3	36.3	36.3	76	29.5	3	6	270	0.00	29.713 
18:15	36.3	36.3	36.3	75	29.1	2	5	248	0.00	29.719 
18:20	36.2	36.2	36.2	76	29.4	2	5	248	0.00	29.719 
18:25	36.2	36.2	36.2	75	29.1	2	6	270	0.00	29.719 
18:30	36.2	36.2	36.2	75	29.1	2	4	248	0.00	29.721 
18:35	36.2	36.2	36.2	75	29.1	2	5	270	0.00	29.721 
18:40	36.2	36.2	36.2	75	29.1	1	3	270	0.00	29.721 
18:45	36.2	36.2	36.2	75	29.1	1	4	248	0.00	29.721 
18:50	36.2	36.2	36.2	75	29.1	1	4	248	0.00	29.721 
18:55	36.2	36.2	36.2	74	28.7	2	5	270	0.00	29.721 
19:00	36.0	36.0	36.0	75	28.9	2	5	248	0.00	29.725 
19:05	36.0	36.0	36.0	75	28.9	2	4	270	0.00	29.725 
19:10	35.9	35.9	35.9	76	29.1	2	4	270	0.00	29.725 
19:15	35.8	35.8	35.8	76	29.0	2	4	270	0.00	29.729 
19:20	35.8	35.8	35.8	76	29.0	2	6	270	0.00	29.729 
19:25	35.6	35.6	35.6	77	29.1	1	3	270	0.00	29.729 
19:30	35.5	35.5	35.5	77	29.0	2	6	248	0.00	29.731 
19:35	35.5	35.5	35.5	78	29.3	2	5	248	0.00	29.731 
19:40	35.3	35.3	35.3	79	29.4	2	6	248	0.00	29.731 
19:45	35.3	35.3	35.3	80	29.8	2	5	248	0.00	29.736 
19:50	35.2	35.2	35.2	80	29.7	2	3	270	0.00	29.736 
19:55	35.0	35.0	35.0	81	29.8	1	4	270	0.00	29.736 
20:00	35.0	35.0	35.0	81	29.8	1	4	248	0.00	29.738 
20:05	34.9	34.9	34.9	81	29.7	2	5	270	0.00	29.738 
20:10	34.9	34.9	34.9	82	30.0	1	3	270	0.00	29.738 
20:15	34.7	34.7	34.7	83	30.1	2	4	292	0.00	29.739 
20:20	34.6	34.6	34.6	84	30.3	1	2	248	0.00	29.739 
20:25	34.4	34.4	34.4	85	30.4	1	4	248	0.00	29.739 
20:30	34.1	34.1	34.1	86	30.4	2	4	270	0.00	29.742 
20:35	34.0	34.0	34.0	87	30.5	2	6	248	0.00	29.742 
20:40	33.8	33.8	33.8	88	30.6	2	3	270	0.00	29.742 
20:45	33.7	33.7	33.7	88	30.5	2	5	248	0.00	29.747 
20:50	33.5	33.5	33.5	89	30.6	1	3	248	0.00	29.747 
20:55	33.5	33.5	33.5	89	30.6	1	3	248	0.00	29.747 
21:00	33.4	33.4	33.4	89	30.5	1	3	248	0.00	29.754 
21:05	33.4	33.4	33.4	90	30.8	1	2	248	0.00	29.754 
21:10	33.2	33.2	33.2	90	30.6	1	3	270	0.00	29.754 
21:15	33.2	33.2	33.2	90	30.6	1	2	270	0.00	29.752 
21:20	33.1	33.1	33.1	91	30.8	1	4	248	0.00	29.752 
21:25	33.1	33.1	33.1	91	30.8	1	3	248	0.00	29.752 
21:30	32.9	32.9	32.9	91	30.6	1	3	248	0.00	29.751 
21:35	32.9	32.9	32.9	91	30.6	1	3	248	0.00	29.751 
21:40	32.9	32.9	32.9	91	30.6	1	2	270	0.00	29.751 
21:45	32.9	32.9	32.9	91	30.6	1	4	248	0.00	29.752 
21:50	32.9	32.9	32.9	91	30.6	1	4	248	0.00	29.752 
21:55	32.9	32.9	32.9	91	30.6	1	4	225	0.00	29.752 
22:00	32.9	32.9	32.9	91	30.6	1	3	248	0.00	29.752 
22:05	32.9	32.9	32.9	91	30.6	1	4	270	0.00	29.752 
22:10	32.9	32.9	32.9	91	30.6	1	4	248	0.00	29.752 
22:15	32.9	32.9	32.9	92	30.8	1	2	292	0.00	29.758 
22:20	32.8	32.8	32.8	92	30.7	1	3	270	0.00	29.758 
22:25	32.8	32.8	32.8	92	30.7	1	3	225	0.00	29.758 
22:30	32.8	32.8	32.8	92	30.7	1	3	270	0.00	29.762 
22:35	32.8	32.8	32.8	92	30.7	1	3	270	0.00	29.762 
22:40	32.8	32.8	32.8	92	30.7	1	2	225	0.00	29.762 
22:45	32.8	32.8	32.8	92	30.7	1	2	248	0.00	29.763 
22:50	32.8	32.8	32.8	92	30.7	0	2	248	0.00	29.763 
22:55	32.8	32.8	32.8	92	30.7	1	3	270	0.00	29.763 
23:00	32.7	32.7	32.7	92	30.6	1	2	270	0.00	29.766 
23:05	32.7	32.7	32.7	92	30.6	1	3	270	0.00	29.766 
23:10	32.7	32.7	32.7	92	30.6	1	3	248	0.00	29.766 
23:15	32.7	32.7	32.7	92	30.6	1	2	248	0.00	29.768 
23:20	32.7	32.7	32.7	92	30.6	1	3	270	0.00	29.768 
23:25	32.7	32.7	32.7	91	30.4	1	3	248	0.00	29.768 
23:30	32.7	32.7	32.7	91	30.4	1	6	248	0.00	29.769 
23:35	32.7	32.7	32.7	91	30.4	1	3	270	0.00	29.769 
23:40	32.7	32.7	32.7	90	30.1	1	3	248	0.00	29.769 
23:45	32.7	32.7	32.7	90	30.1	1	3	270	0.00	29.771 
23:50	32.8	32.8	32.8	90	30.2	1	3	248	0.00	29.771 
23:55	32.8	32.8	32.8	90	30.2	1	3	248	0.00	29.771 

CoCoRaHS
IN-AL-39
A2 Web Hosting
Creative Commons License
GoDaddy
Look for:

loaded 2017-10-20 19:50:37 • last modified 2010-11-18 10:43:29
Privacy PolicyDisclaimer
• wx.awcolley.com is powered by PmWiki v.2002016 •
• all content (unless otherwise noted) © 2017 A W Colley